createdAt,value
2019-03-23T00:00:39.674Z,10.80
2019-03-23T00:03:11.871Z,11.30
2019-03-23T00:05:43.923Z,10.80
2019-03-23T00:08:16.275Z,10.67
2019-03-23T00:10:48.886Z,9.60
2019-03-23T00:13:21.030Z,9.53
2019-03-23T00:15:53.829Z,9.53
2019-03-23T00:18:26.059Z,9.50
2019-03-23T00:20:58.111Z,9.83
2019-03-23T00:23:30.424Z,10.43
2019-03-23T00:26:02.694Z,10.70
2019-03-23T00:28:35.008Z,10.30
2019-03-23T00:31:07.077Z,10.90
2019-03-23T00:33:39.131Z,10.07
2019-03-23T00:36:11.556Z,10.47
2019-03-23T00:38:43.690Z,10.77
2019-03-23T00:41:15.860Z,10.47
2019-03-23T00:43:48.268Z,10.40
2019-03-23T00:46:20.400Z,9.77
2019-03-23T00:48:52.461Z,9.50
2019-03-23T00:51:25.030Z,10.03
2019-03-23T00:53:57.371Z,9.70
2019-03-23T00:56:29.786Z,9.47
2019-03-23T00:59:02.238Z,10.10
2019-03-23T01:01:34.445Z,10.40
2019-03-23T01:04:06.682Z,10.03
2019-03-23T01:06:38.822Z,10.37
2019-03-23T01:09:11.199Z,9.80
2019-03-23T01:11:43.264Z,10.03
2019-03-23T01:14:15.358Z,10.67
2019-03-23T01:16:47.838Z,11.60
2019-03-23T01:19:20.297Z,12.00
2019-03-23T01:21:52.279Z,10.67
2019-03-23T01:24:24.353Z,10.93
2019-03-23T01:26:56.500Z,11.53
2019-03-23T01:29:28.560Z,10.63
2019-03-23T01:32:00.616Z,10.60
2019-03-23T01:34:32.659Z,9.97
2019-03-23T01:37:05.063Z,10.87
2019-03-23T01:39:37.289Z,10.50
2019-03-23T01:42:09.766Z,11.27
2019-03-23T01:44:41.982Z,11.00
2019-03-23T01:47:14.038Z,10.80
2019-03-23T01:49:46.015Z,10.80
2019-03-23T01:52:18.144Z,10.77
2019-03-23T01:54:50.573Z,10.17
2019-03-23T01:57:22.553Z,10.20
2019-03-23T01:59:54.675Z,10.10
2019-03-23T02:02:27.213Z,9.77
2019-03-23T02:04:59.272Z,10.77
2019-03-23T02:07:31.248Z,11.20
2019-03-23T02:10:03.882Z,10.43
2019-03-23T02:12:36.412Z,11.17
2019-03-23T02:15:11.118Z,10.67
2019-03-23T02:17:43.329Z,10.43
2019-03-23T02:20:15.672Z,10.30
2019-03-23T02:22:47.979Z,10.03
2019-03-23T02:25:20.000Z,10.17
2019-03-23T02:27:52.057Z,10.60
2019-03-23T02:30:24.283Z,9.80
2019-03-23T02:32:57.014Z,10.63
2019-03-23T02:35:29.323Z,10.13
2019-03-23T02:38:01.646Z,10.83
2019-03-23T02:40:33.972Z,11.40
2019-03-23T02:43:06.041Z,10.30
2019-03-23T02:45:38.780Z,10.33
2019-03-23T02:48:11.573Z,10.73
2019-03-23T02:50:43.678Z,9.93
2019-03-23T02:53:16.024Z,10.47
2019-03-23T02:55:48.193Z,10.27
2019-03-23T02:58:20.149Z,9.93
2019-03-23T03:00:53.105Z,10.87
2019-03-23T03:03:25.434Z,10.73
2019-03-23T03:05:57.780Z,10.47
2019-03-23T03:08:29.866Z,10.27
2019-03-23T03:11:02.187Z,9.77
2019-03-23T03:13:34.158Z,9.37
2019-03-23T03:16:06.400Z,9.30
2019-03-23T03:18:38.463Z,9.37
2019-03-23T03:21:11.653Z,9.93
2019-03-23T03:23:44.070Z,10.57
2019-03-23T03:26:16.142Z,11.67
2019-03-23T03:28:48.303Z,11.90
2019-03-23T03:31:20.430Z,13.33
2019-03-23T03:33:52.433Z,14.57
2019-03-23T03:36:24.473Z,13.83
2019-03-23T03:38:56.550Z,13.83
2019-03-23T03:41:28.625Z,13.47
2019-03-23T03:44:00.844Z,13.27
2019-03-23T03:46:33.234Z,13.30
2019-03-23T03:49:12.361Z,13.27
2019-03-23T03:51:39.449Z,13.40
2019-03-23T03:54:20.715Z,12.93
2019-03-23T03:56:53.165Z,12.40
2019-03-23T03:59:25.470Z,13.70
2019-03-23T04:01:57.898Z,13.30
2019-03-23T04:04:30.411Z,12.63
2019-03-23T04:07:02.871Z,12.80
2019-03-23T04:09:35.006Z,12.10
2019-03-23T04:12:07.419Z,11.77
2019-03-23T04:14:39.407Z,12.17
2019-03-23T04:17:11.510Z,12.37
2019-03-23T04:19:43.912Z,11.90
2019-03-23T04:22:16.084Z,11.40
2019-03-23T04:24:48.224Z,12.57
2019-03-23T04:27:20.385Z,11.93
2019-03-23T04:29:52.360Z,11.17
2019-03-23T04:32:25.891Z,12.40
2019-03-23T04:34:57.944Z,11.30
2019-03-23T04:37:29.976Z,11.50
2019-03-23T04:40:02.478Z,10.67
2019-03-23T04:42:34.973Z,11.33
2019-03-23T04:45:09.017Z,12.30
2019-03-23T04:47:41.289Z,13.00
2019-03-23T04:50:13.962Z,12.97
2019-03-23T04:52:46.106Z,12.90
2019-03-23T04:55:18.646Z,12.53
2019-03-23T04:57:50.786Z,11.50
2019-03-23T05:00:23.199Z,11.50
2019-03-23T05:02:55.347Z,12.07
2019-03-23T05:05:27.474Z,12.40
2019-03-23T05:07:59.606Z,11.53
2019-03-23T05:10:31.689Z,11.87
2019-03-23T05:13:03.842Z,11.90
2019-03-23T05:15:35.932Z,12.30
2019-03-23T05:18:08.183Z,13.03
2019-03-23T05:20:40.433Z,13.47
2019-03-23T05:23:12.820Z,12.73
2019-03-23T05:25:45.337Z,13.57
2019-03-23T05:28:17.765Z,13.97
2019-03-23T05:30:50.036Z,14.00
2019-03-23T05:33:22.177Z,13.83
2019-03-23T05:35:54.244Z,14.47
2019-03-23T05:38:26.556Z,14.10
2019-03-23T05:40:58.555Z,12.70
2019-03-23T05:43:30.693Z,12.07
2019-03-23T05:46:03.531Z,12.60
2019-03-23T05:48:35.704Z,12.37
2019-03-23T05:51:08.092Z,12.03
2019-03-23T05:53:40.233Z,12.73
2019-03-23T05:56:12.218Z,12.63
2019-03-23T05:58:44.588Z,12.20
2019-03-23T06:01:16.668Z,12.87
2019-03-23T06:03:49.820Z,12.53
2019-03-23T06:06:21.974Z,12.47
2019-03-23T06:08:55.518Z,14.30
2019-03-23T06:11:27.731Z,13.07
2019-03-23T06:14:00.200Z,13.57
2019-03-23T06:16:32.563Z,12.13
2019-03-23T06:19:04.890Z,12.40
2019-03-23T06:21:37.040Z,11.50
2019-03-23T06:24:09.338Z,11.90
2019-03-23T06:26:41.399Z,13.90
2019-03-23T06:29:13.805Z,12.13
2019-03-23T06:31:45.808Z,12.43
2019-03-23T06:34:18.436Z,12.67
2019-03-23T06:36:50.477Z,13.70
2019-03-23T06:39:22.843Z,13.60
2019-03-23T06:41:54.930Z,13.00
2019-03-23T06:44:27.014Z,12.90
2019-03-23T06:46:59.156Z,12.50
2019-03-23T06:49:31.235Z,12.60
2019-03-23T06:52:03.829Z,13.53
2019-03-23T06:54:36.106Z,13.37
2019-03-23T06:57:08.275Z,13.73
2019-03-23T06:59:40.534Z,12.97
2019-03-23T07:02:13.776Z,12.83
2019-03-23T07:04:45.968Z,14.00
2019-03-23T07:07:18.084Z,14.87
2019-03-23T07:09:50.558Z,14.97
2019-03-23T07:12:22.639Z,16.53
2019-03-23T07:14:55.600Z,18.47
2019-03-23T07:17:27.675Z,18.47
2019-03-23T07:19:59.827Z,17.83
2019-03-23T07:22:32.379Z,17.33
2019-03-23T07:25:05.379Z,16.40
2019-03-23T07:27:37.780Z,18.00
2019-03-23T07:30:13.407Z,17.67
2019-03-23T07:32:45.725Z,18.30
2019-03-23T07:35:18.084Z,17.77
2019-03-23T07:37:50.309Z,17.87
2019-03-23T07:40:22.501Z,17.70
2019-03-23T07:42:54.624Z,16.10
2019-03-23T07:45:26.963Z,19.53
2019-03-23T07:47:59.492Z,19.27
2019-03-23T07:50:31.727Z,19.40
2019-03-23T07:53:03.948Z,20.27
2019-03-23T07:55:36.037Z,19.93
2019-03-23T07:58:08.313Z,19.33
2019-03-23T08:00:41.161Z,20.03
2019-03-23T08:03:14.039Z,20.33
2019-03-23T08:05:46.600Z,19.40
2019-03-23T08:08:18.969Z,19.63
2019-03-23T08:10:51.271Z,20.60
2019-03-23T08:13:23.494Z,20.07
2019-03-23T08:15:55.602Z,19.70
2019-03-23T08:18:27.743Z,20.57
2019-03-23T08:21:00.223Z,19.83
2019-03-23T08:23:32.317Z,21.50
2019-03-23T08:26:04.763Z,21.00
2019-03-23T08:28:36.945Z,21.57
2019-03-23T08:31:09.409Z,21.07
2019-03-23T08:33:41.742Z,21.63
2019-03-23T08:36:14.092Z,22.10
2019-03-23T08:38:46.511Z,22.27
2019-03-23T08:41:18.598Z,21.93
2019-03-23T08:43:50.773Z,21.30
2019-03-23T08:46:22.851Z,20.60
2019-03-23T08:48:54.938Z,21.37
2019-03-23T08:51:27.052Z,20.23
2019-03-23T08:53:59.074Z,20.93
2019-03-23T08:56:31.266Z,21.53
2019-03-23T08:59:03.672Z,21.43
2019-03-23T09:01:35.835Z,22.37
2019-03-23T09:04:07.987Z,22.73
2019-03-23T09:06:40.142Z,22.50
2019-03-23T09:09:12.288Z,23.03
2019-03-23T09:11:45.372Z,22.03
2019-03-23T09:14:17.436Z,23.07
2019-03-23T09:16:49.931Z,22.40
2019-03-23T09:19:22.181Z,22.40
2019-03-23T09:21:54.765Z,22.43
2019-03-23T09:24:27.098Z,22.73
2019-03-23T09:26:59.689Z,22.53
2019-03-23T09:29:32.876Z,23.43
2019-03-23T09:32:05.120Z,23.07
2019-03-23T09:34:37.251Z,23.90
2019-03-23T09:37:09.413Z,23.73
2019-03-23T09:39:41.904Z,23.30
2019-03-23T09:42:14.458Z,24.43
2019-03-23T09:44:46.684Z,23.90
2019-03-23T09:47:19.222Z,24.00
2019-03-23T09:49:51.455Z,24.80
2019-03-23T09:52:23.637Z,24.73
2019-03-23T09:55:02.207Z,25.10
2019-03-23T09:57:41.366Z,24.80
2019-03-23T10:00:14.126Z,24.77
2019-03-23T10:02:46.602Z,24.67
2019-03-23T10:05:21.354Z,24.30
2019-03-23T10:07:53.557Z,24.50
2019-03-23T10:10:25.728Z,25.33
2019-03-23T10:12:58.204Z,23.47
2019-03-23T10:15:30.268Z,24.90
2019-03-23T10:18:02.747Z,24.75
2019-03-23T10:20:35.933Z,25.62
2019-03-23T10:23:08.472Z,24.57
2019-03-23T10:25:41.140Z,25.70
2019-03-23T10:28:13.410Z,25.43
2019-03-23T10:30:45.946Z,26.90
2019-03-23T10:33:18.041Z,26.97
2019-03-23T10:35:50.279Z,27.35
2019-03-23T10:38:22.572Z,26.97
2019-03-23T10:40:54.814Z,28.10
2019-03-23T10:43:26.879Z,26.37
2019-03-23T10:45:59.061Z,26.45
2019-03-23T10:48:31.222Z,27.55
2019-03-23T10:51:03.445Z,26.87
2019-03-23T10:53:36.672Z,27.40
2019-03-23T10:56:09.133Z,28.38
2019-03-23T10:58:41.334Z,27.07
2019-03-23T11:01:13.546Z,27.15
2019-03-23T11:03:45.783Z,27.17
2019-03-23T11:06:18.007Z,28.12
2019-03-23T11:08:50.312Z,27.15
2019-03-23T11:11:22.635Z,27.82
2019-03-23T11:13:54.795Z,27.58
2019-03-23T11:16:27.300Z,27.75
2019-03-23T11:18:59.599Z,27.17
2019-03-23T11:21:31.731Z,28.55
2019-03-23T11:24:03.933Z,28.02
2019-03-23T11:26:36.078Z,28.57
2019-03-23T11:29:08.689Z,28.05
2019-03-23T11:31:40.919Z,27.73
2019-03-23T11:34:17.714Z,26.87
2019-03-23T11:36:47.302Z,27.52
2019-03-23T11:39:19.482Z,26.95
2019-03-23T11:41:51.986Z,27.17
2019-03-23T11:44:24.307Z,27.05
2019-03-23T11:46:56.495Z,28.30
2019-03-23T11:49:29.020Z,26.48
2019-03-23T11:52:02.257Z,26.57
2019-03-23T11:54:35.151Z,27.05
2019-03-23T11:57:07.793Z,27.77
2019-03-23T11:59:40.356Z,29.37
2019-03-23T12:02:13.840Z,27.82
2019-03-23T12:04:46.051Z,25.85
2019-03-23T12:07:18.603Z,25.85
2019-03-23T12:09:51.116Z,26.57
2019-03-23T12:12:23.323Z,28.60
2019-03-23T12:14:55.436Z,25.82
2019-03-23T12:17:27.984Z,26.55
2019-03-23T12:20:00.182Z,26.68
2019-03-23T12:22:32.498Z,24.95
2019-03-23T12:25:05.172Z,26.02
2019-03-23T12:27:37.393Z,25.30
2019-03-23T12:30:12.008Z,25.00
2019-03-23T12:32:44.288Z,26.80
2019-03-23T12:35:16.631Z,26.00
2019-03-23T12:37:48.798Z,26.02
2019-03-23T12:40:21.114Z,25.40
2019-03-23T12:42:53.589Z,26.80
2019-03-23T12:45:25.991Z,25.57
2019-03-23T12:47:58.792Z,26.40
2019-03-23T12:50:31.218Z,26.62
2019-03-23T12:53:03.581Z,26.10
2019-03-23T12:55:35.660Z,25.88
2019-03-23T12:58:07.904Z,27.35
2019-03-23T13:00:40.074Z,24.92
2019-03-23T13:03:12.341Z,27.02
2019-03-23T13:05:44.496Z,27.17
2019-03-23T13:08:16.736Z,25.75
2019-03-23T13:10:48.962Z,25.52
2019-03-23T13:13:21.167Z,25.92
2019-03-23T13:15:53.461Z,25.32
2019-03-23T13:18:27.355Z,26.23
2019-03-23T13:21:03.021Z,25.50
2019-03-23T13:23:34.826Z,27.02
2019-03-23T13:26:07.269Z,24.82
2019-03-23T13:28:39.428Z,28.30
2019-03-23T13:31:11.724Z,25.23
2019-03-23T13:33:43.955Z,25.60
2019-03-23T13:36:16.150Z,25.30
2019-03-23T13:38:48.325Z,23.92
2019-03-23T13:41:20.536Z,24.12
2019-03-23T13:43:52.739Z,25.00
2019-03-23T13:46:24.794Z,23.92
2019-03-23T13:48:56.874Z,23.67
2019-03-23T13:51:29.034Z,24.77
2019-03-23T13:54:01.310Z,24.95
2019-03-23T13:56:34.416Z,25.23
2019-03-23T13:59:06.516Z,24.87
2019-03-23T14:01:38.712Z,26.17
2019-03-23T14:04:10.876Z,25.50
2019-03-23T14:06:44.272Z,24.92
2019-03-23T14:09:16.827Z,25.32
2019-03-23T14:11:54.971Z,24.72
2019-03-23T14:14:23.291Z,25.88
2019-03-23T14:16:55.377Z,24.47
2019-03-23T14:19:27.771Z,24.27
2019-03-23T14:22:00.639Z,25.32
2019-03-23T14:24:32.759Z,24.18
2019-03-23T14:27:04.919Z,25.08
2019-03-23T14:29:36.998Z,25.27
2019-03-23T14:32:09.255Z,24.77
2019-03-23T14:34:41.411Z,24.82
2019-03-23T14:37:13.893Z,24.57
2019-03-23T14:39:45.907Z,24.63
2019-03-23T14:42:18.589Z,24.30
2019-03-23T14:44:50.813Z,23.95
2019-03-23T14:47:23.758Z,22.95
2019-03-23T14:49:55.975Z,24.15
2019-03-23T14:52:28.519Z,22.95
2019-03-23T14:55:00.755Z,22.40
2019-03-23T14:57:32.914Z,22.37
2019-03-23T15:00:06.072Z,22.25
2019-03-23T15:02:38.185Z,22.70
2019-03-23T15:05:10.496Z,22.40
2019-03-23T15:07:42.654Z,21.82
2019-03-23T15:10:15.383Z,22.05
2019-03-23T15:12:47.868Z,22.30
2019-03-23T15:15:20.180Z,22.50
2019-03-23T15:17:52.492Z,22.40
2019-03-23T15:20:25.079Z,23.22
2019-03-23T15:22:59.092Z,22.02
2019-03-23T15:25:32.253Z,23.15
2019-03-23T15:28:04.498Z,23.07
2019-03-23T15:30:36.768Z,22.75
2019-03-23T15:33:08.914Z,25.02
2019-03-23T15:35:41.282Z,22.87
2019-03-23T15:38:13.464Z,23.38
2019-03-23T15:40:45.612Z,24.45
2019-03-23T15:43:17.749Z,21.77
2019-03-23T15:45:49.895Z,21.50
2019-03-23T15:48:22.155Z,21.48
2019-03-23T15:50:54.795Z,22.27
2019-03-23T15:53:26.975Z,23.42
2019-03-23T15:55:59.055Z,24.45
2019-03-23T15:58:31.242Z,21.70
2019-03-23T16:01:03.761Z,20.52
2019-03-23T16:03:35.763Z,19.95
2019-03-23T16:06:09.403Z,20.05
2019-03-23T16:08:41.500Z,21.45
2019-03-23T16:11:13.577Z,19.82
2019-03-23T16:13:46.069Z,19.05
2019-03-23T16:16:18.423Z,20.60
2019-03-23T16:18:50.422Z,19.90
2019-03-23T16:21:22.657Z,20.70
2019-03-23T16:23:54.655Z,20.45
2019-03-23T16:26:27.100Z,19.60
2019-03-23T16:28:59.161Z,20.33
2019-03-23T16:31:31.486Z,21.70
2019-03-23T16:34:03.687Z,19.92
2019-03-23T16:36:35.847Z,20.60
2019-03-23T16:39:09.081Z,21.85
2019-03-23T16:41:41.206Z,22.93
2019-03-23T16:44:14.201Z,20.80
2019-03-23T16:46:46.348Z,23.40
2019-03-23T16:49:18.548Z,21.13
2019-03-23T16:51:50.781Z,24.30
2019-03-23T16:54:23.018Z,20.50
2019-03-23T16:56:55.351Z,19.00
2019-03-23T16:59:27.514Z,19.53
2019-03-23T17:02:00.020Z,19.33
2019-03-23T17:04:32.109Z,18.57
2019-03-23T17:07:04.281Z,18.07
2019-03-23T17:09:36.541Z,17.63
2019-03-23T17:12:08.836Z,18.40
2019-03-23T17:14:41.046Z,16.10
2019-03-23T17:17:13.217Z,15.70
2019-03-23T17:19:45.388Z,16.07
2019-03-23T17:22:17.498Z,15.63
2019-03-23T17:24:49.748Z,14.77
2019-03-23T17:27:22.375Z,14.43
2019-03-23T17:29:54.535Z,13.80
2019-03-23T17:32:26.573Z,13.47
2019-03-23T17:34:58.843Z,13.63
2019-03-23T17:37:30.929Z,13.90
2019-03-23T17:40:03.129Z,13.80
2019-03-23T17:42:36.039Z,14.33
2019-03-23T17:45:09.555Z,14.67
2019-03-23T17:47:42.278Z,14.97
2019-03-23T17:50:15.007Z,14.57
2019-03-23T17:52:47.756Z,14.63
2019-03-23T17:55:19.831Z,15.87
2019-03-23T17:57:52.056Z,16.50
2019-03-23T18:00:24.266Z,15.40
2019-03-23T18:02:56.638Z,16.60
2019-03-23T18:05:28.759Z,15.90
2019-03-23T18:08:01.052Z,15.80
2019-03-23T18:10:33.401Z,16.37
2019-03-23T18:13:15.911Z,16.83
2019-03-23T18:15:39.888Z,16.33
2019-03-23T18:18:12.049Z,16.77
2019-03-23T18:20:44.674Z,17.60
2019-03-23T18:23:17.178Z,16.40
2019-03-23T18:25:49.404Z,16.80
2019-03-23T18:28:21.499Z,16.47
2019-03-23T18:30:53.801Z,17.27
2019-03-23T18:33:26.361Z,16.67
2019-03-23T18:35:58.570Z,16.93
2019-03-23T18:38:31.210Z,16.77
2019-03-23T18:41:03.443Z,18.10
2019-03-23T18:43:35.792Z,17.73
2019-03-23T18:46:07.889Z,15.70
2019-03-23T18:48:40.212Z,15.13
2019-03-23T18:51:12.737Z,14.77
2019-03-23T18:53:44.904Z,15.03
2019-03-23T18:56:17.586Z,14.47
2019-03-23T18:58:50.129Z,15.53
2019-03-23T19:01:22.118Z,15.10
2019-03-23T19:03:54.207Z,14.50
2019-03-23T19:06:26.383Z,14.47
2019-03-23T19:08:58.974Z,14.23
2019-03-23T19:11:31.167Z,14.10
2019-03-23T19:14:03.263Z,15.50
2019-03-23T19:16:35.489Z,14.23
2019-03-23T19:19:07.665Z,15.53
2019-03-23T19:21:39.895Z,14.83
2019-03-23T19:24:11.972Z,16.67
2019-03-23T19:26:44.119Z,15.50
2019-03-23T19:29:16.589Z,16.60
2019-03-23T19:31:48.764Z,16.40
2019-03-23T19:34:20.918Z,17.77
2019-03-23T19:36:53.503Z,17.83
2019-03-23T19:39:25.899Z,17.33
2019-03-23T19:41:58.048Z,18.90
2019-03-23T19:44:30.103Z,19.53
2019-03-23T19:47:03.274Z,18.70
2019-03-23T19:49:35.495Z,18.33
2019-03-23T19:52:07.569Z,18.07
2019-03-23T19:54:39.814Z,15.93
2019-03-23T19:57:12.098Z,16.03
2019-03-23T19:59:44.533Z,15.53
2019-03-23T20:02:16.658Z,15.57
2019-03-23T20:04:49.010Z,15.80
2019-03-23T20:07:21.017Z,17.73
2019-03-23T20:09:53.100Z,17.23
2019-03-23T20:12:28.666Z,18.03
2019-03-23T20:15:01.214Z,19.33
2019-03-23T20:17:33.468Z,18.43
2019-03-23T20:20:06.699Z,17.90
2019-03-23T20:22:39.083Z,18.17
2019-03-23T20:25:12.727Z,19.40
2019-03-23T20:27:44.815Z,19.67
2019-03-23T20:30:18.274Z,19.93
2019-03-23T20:32:51.050Z,20.23
2019-03-23T20:35:23.291Z,18.93
2019-03-23T20:37:55.931Z,19.07
2019-03-23T20:40:28.446Z,19.73
2019-03-23T20:43:00.755Z,19.77
2019-03-23T20:45:33.337Z,20.50
2019-03-23T20:48:05.895Z,20.90
2019-03-23T20:50:38.757Z,20.17
2019-03-23T20:53:11.168Z,20.53
2019-03-23T20:55:43.338Z,20.37
2019-03-23T20:58:15.489Z,20.00
2019-03-23T21:00:47.699Z,18.80
2019-03-23T21:03:19.851Z,19.50
2019-03-23T21:05:52.203Z,19.00
2019-03-23T21:08:24.347Z,19.73
2019-03-23T21:10:56.884Z,20.43
2019-03-23T21:13:28.959Z,22.00
2019-03-23T21:16:01.254Z,19.73
2019-03-23T21:18:33.682Z,19.77
2019-03-23T21:21:08.473Z,19.43
2019-03-23T21:23:43.139Z,20.00
2019-03-23T21:26:15.830Z,19.37
2019-03-23T21:28:48.189Z,19.13
2019-03-23T21:31:22.639Z,19.30
2019-03-23T21:33:55.372Z,19.77
2019-03-23T21:36:27.809Z,20.23
2019-03-23T21:39:00.238Z,20.00
2019-03-23T21:41:34.569Z,19.03
2019-03-23T21:44:07.280Z,19.50
2019-03-23T21:46:39.601Z,19.57
2019-03-23T21:49:12.034Z,19.77
2019-03-23T21:51:44.711Z,18.17
2019-03-23T21:54:17.058Z,18.37
2019-03-23T21:56:50.277Z,20.87
2019-03-23T21:59:22.737Z,19.43
2019-03-23T22:01:55.106Z,18.37
2019-03-23T22:04:28.285Z,19.83
2019-03-23T22:07:00.788Z,19.30
2019-03-23T22:09:33.880Z,20.93
2019-03-23T22:12:06.162Z,18.80
2019-03-23T22:14:41.944Z,19.33
2019-03-23T22:17:13.383Z,19.87
2019-03-23T22:19:46.009Z,19.17
2019-03-23T22:22:18.550Z,20.30
2019-03-23T22:24:51.025Z,20.03
2019-03-23T22:27:23.570Z,19.37
2019-03-23T22:29:56.302Z,20.87
2019-03-23T22:32:28.647Z,21.27
2019-03-23T22:35:01.072Z,20.07
2019-03-23T22:37:33.491Z,20.87
2019-03-23T22:40:07.236Z,20.77
2019-03-23T22:42:39.792Z,19.27
2019-03-23T22:45:14.829Z,20.87
2019-03-23T22:47:47.993Z,20.03
2019-03-23T22:50:20.499Z,19.53
2019-03-23T22:52:53.279Z,20.93
2019-03-23T22:55:25.717Z,20.60
2019-03-23T22:57:57.799Z,20.40
2019-03-23T23:00:42.164Z,18.97
2019-03-23T23:03:15.465Z,16.57
2019-03-23T23:05:47.735Z,16.93
2019-03-23T23:08:19.936Z,17.27
2019-03-23T23:10:52.291Z,17.67
2019-03-23T23:13:24.287Z,18.27
2019-03-23T23:15:56.513Z,19.07
2019-03-23T23:18:28.800Z,18.53
2019-03-23T23:21:01.046Z,18.00
2019-03-23T23:23:34.473Z,18.93
2019-03-23T23:26:07.752Z,18.97
2019-03-23T23:28:39.823Z,18.53
2019-03-23T23:31:11.954Z,19.13
2019-03-23T23:33:44.099Z,25.13
2019-03-23T23:36:16.512Z,22.17
2019-03-23T23:38:48.656Z,17.37
2019-03-23T23:41:20.882Z,15.00
2019-03-23T23:43:54.087Z,14.63
2019-03-23T23:46:27.824Z,16.13
2019-03-23T23:48:59.992Z,15.23
2019-03-23T23:51:32.343Z,16.70
2019-03-23T23:54:04.644Z,16.67
2019-03-23T23:56:36.912Z,17.27
2019-03-23T23:59:08.994Z,16.10
